Waseca, Saskatchewan

Past 24 Hour Conditions

This table is a summary of hourly weather conditions for the past 24 hours. This summary includes the following parameters: temperature, humidity, dew point, wind speed and direction, air pressure, visibility and/or wind chill and humidex.
Date / Time
(CST)
Conditions Temp (°C) Humidity (%) Dew Point (°C) Wind (km/h) Pressure (kPa) Visibility (km)
23 April 2014
13:00 N/A 4   95 3 ESE 32 gust 40 99.8 N/A
12:00 N/A 5 89 3 ESE 35 gust 49 99.8 N/A
11:00 N/A 6 78 2 ESE 28 gust 48 99.8 N/A
10:00 N/A 7 68 1 ESE 29 gust 42 99.8 N/A
9:00 N/A 7 67 1 ESE 28 gust 48 99.8 N/A
8:00 N/A 7 68 1 ESE 35 gust 50 99.7 N/A
7:00 N/A 6 69 1 E 27 gust 48 99.7 N/A
6:00 N/A 6 69 1 ESE 29 gust 42 99.7 N/A
5:00 N/A 7 70 2 ESE 22 gust 32 99.8 N/A
4:00 N/A 7 69 2 E 22 gust 43 99.8 N/A
3:00 N/A 8 67 2 ESE 22 gust 40 99.9 N/A
2:00 N/A 9 64 2 E 26 gust 47 99.9 N/A
1:00 N/A 9 66 3 ESE 27 gust 41 100.0 N/A
00:00 N/A 10 67 4 ESE 28 gust 40 100.0 N/A
22 April 2014
23:00 N/A 10 67 4 ESE 31 gust 44 100.1 N/A
22:00 N/A 10 68 5 E 24 gust 41 100.2 N/A
21:00 N/A 12 60 4 E 23 gust 33 100.2 N/A
20:00 N/A 13 55 5 E 27 gust 38 100.2 N/A
19:00 N/A 15 47 4 E 30 gust 43 100.2 N/A
18:00 N/A 17 35 2 E 37 gust 50 100.2 N/A
17:00 N/A 18 33 2 E 29 gust 45 100.3 N/A
16:00 N/A 19   30 1 E 26 gust 45 100.3 N/A
15:00 N/A 17 31 0 E 29 100.4 N/A
14:00 N/A N/A N/A N/A N/A N/A N/A
13:00 N/A N/A N/A N/A N/A N/A N/A
N/A
Not available
 ↑ 
Highest temperature
 ↓ 
Lowest temperature

If you require additional historical weather information, please visit Climate Data Online.